sensor_id;sensor_type;location;lat;lon;timestamp;P1;durP1;ratioP1;P2;durP2;ratioP2
83055;SDS011;72881;43.514;1.510;2023-12-28T00:01:10;4.22;;;2.17;;
83055;SDS011;72881;43.514;1.510;2023-12-28T00:03:35;4.53;;;1.90;;
83055;SDS011;72881;43.514;1.510;2023-12-28T00:06:00;4.88;;;2.05;;
83055;SDS011;72881;43.514;1.510;2023-12-28T00:08:26;3.05;;;1.80;;
83055;SDS011;72881;43.514;1.510;2023-12-28T00:10:51;3.97;;;1.90;;
83055;SDS011;72881;43.514;1.510;2023-12-28T00:13:17;3.50;;;2.05;;
83055;SDS011;72881;43.514;1.510;2023-12-28T00:15:42;3.38;;;2.10;;
83055;SDS011;72881;43.514;1.510;2023-12-28T00:18:08;3.30;;;2.03;;
83055;SDS011;72881;43.514;1.510;2023-12-28T00:20:33;4.75;;;2.30;;
83055;SDS011;72881;43.514;1.510;2023-12-28T00:22:58;4.07;;;2.13;;
83055;SDS011;72881;43.514;1.510;2023-12-28T00:25:25;3.65;;;2.13;;
83055;SDS011;72881;43.514;1.510;2023-12-28T00:27:50;3.00;;;2.00;;
83055;SDS011;72881;43.514;1.510;2023-12-28T00:30:16;4.47;;;2.20;;
83055;SDS011;72881;43.514;1.510;2023-12-28T00:32:42;3.40;;;1.83;;
83055;SDS011;72881;43.514;1.510;2023-12-28T00:35:09;3.05;;;1.95;;
83055;SDS011;72881;43.514;1.510;2023-12-28T00:37:35;3.78;;;1.85;;
83055;SDS011;72881;43.514;1.510;2023-12-28T00:40:00;3.25;;;2.05;;
83055;SDS011;72881;43.514;1.510;2023-12-28T00:42:26;4.18;;;1.80;;
83055;SDS011;72881;43.514;1.510;2023-12-28T00:44:51;4.68;;;2.13;;
83055;SDS011;72881;43.514;1.510;2023-12-28T00:47:17;4.10;;;2.03;;
83055;SDS011;72881;43.514;1.510;2023-12-28T00:49:43;4.60;;;1.95;;
83055;SDS011;72881;43.514;1.510;2023-12-28T00:52:08;4.55;;;1.80;;
83055;SDS011;72881;43.514;1.510;2023-12-28T00:54:34;3.83;;;2.22;;
83055;SDS011;72881;43.514;1.510;2023-12-28T00:57:02;2.88;;;1.75;;
83055;SDS011;72881;43.514;1.510;2023-12-28T00:59:28;3.72;;;2.13;;
83055;SDS011;72881;43.514;1.510;2023-12-28T01:01:54;3.65;;;1.98;;
83055;SDS011;72881;43.514;1.510;2023-12-28T01:04:20;3.67;;;2.08;;
83055;SDS011;72881;43.514;1.510;2023-12-28T01:06:48;4.22;;;2.00;;
83055;SDS011;72881;43.514;1.510;2023-12-28T01:09:19;3.25;;;2.00;;
83055;SDS011;72881;43.514;1.510;2023-12-28T01:11:45;3.85;;;2.13;;
83055;SDS011;72881;43.514;1.510;2023-12-28T01:14:11;3.47;;;1.70;;
83055;SDS011;72881;43.514;1.510;2023-12-28T01:16:36;3.13;;;2.03;;
83055;SDS011;72881;43.514;1.510;2023-12-28T01:19:04;4.63;;;1.95;;
83055;SDS011;72881;43.514;1.510;2023-12-28T01:21:30;2.92;;;1.75;;
83055;SDS011;72881;43.514;1.510;2023-12-28T01:23:55;3.63;;;1.80;;
83055;SDS011;72881;43.514;1.510;2023-12-28T01:26:21;3.17;;;1.60;;
83055;SDS011;72881;43.514;1.510;2023-12-28T01:28:46;3.05;;;1.90;;
83055;SDS011;72881;43.514;1.510;2023-12-28T01:31:12;3.25;;;1.80;;
83055;SDS011;72881;43.514;1.510;2023-12-28T01:33:37;3.25;;;1.80;;
83055;SDS011;72881;43.514;1.510;2023-12-28T01:36:03;3.53;;;1.80;;
83055;SDS011;72881;43.514;1.510;2023-12-28T01:38:44;3.13;;;1.70;;
83055;SDS011;72881;43.514;1.510;2023-12-28T01:41:10;4.40;;;2.08;;
83055;SDS011;72881;43.514;1.510;2023-12-28T01:43:37;2.95;;;1.70;;
83055;SDS011;72881;43.514;1.510;2023-12-28T01:46:03;2.90;;;1.58;;
83055;SDS011;72881;43.514;1.510;2023-12-28T01:48:29;3.95;;;1.60;;
83055;SDS011;72881;43.514;1.510;2023-12-28T01:50:55;2.97;;;1.70;;
83055;SDS011;72881;43.514;1.510;2023-12-28T01:53:21;4.07;;;1.70;;
83055;SDS011;72881;43.514;1.510;2023-12-28T01:55:47;2.63;;;1.52;;
83055;SDS011;72881;43.514;1.510;2023-12-28T01:58:12;2.92;;;1.67;;
83055;SDS011;72881;43.514;1.510;2023-12-28T02:00:37;3.38;;;1.80;;
83055;SDS011;72881;43.514;1.510;2023-12-28T02:03:04;3.13;;;1.70;;
83055;SDS011;72881;43.514;1.510;2023-12-28T02:05:31;4.75;;;1.73;;
83055;SDS011;72881;43.514;1.510;2023-12-28T02:07:57;3.60;;;2.03;;
83055;SDS011;72881;43.514;1.510;2023-12-28T02:10:23;2.53;;;1.63;;
83055;SDS011;72881;43.514;1.510;2023-12-28T02:12:48;2.70;;;1.58;;
83055;SDS011;72881;43.514;1.510;2023-12-28T02:15:15;2.90;;;1.50;;
83055;SDS011;72881;43.514;1.510;2023-12-28T02:17:47;2.85;;;1.50;;
83055;SDS011;72881;43.514;1.510;2023-12-28T02:20:15;3.58;;;1.70;;
83055;SDS011;72881;43.514;1.510;2023-12-28T02:22:40;2.70;;;1.67;;
83055;SDS011;72881;43.514;1.510;2023-12-28T02:25:06;4.00;;;1.90;;
83055;SDS011;72881;43.514;1.510;2023-12-28T02:27:35;3.58;;;1.70;;
83055;SDS011;72881;43.514;1.510;2023-12-28T02:30:02;3.28;;;1.70;;
83055;SDS011;72881;43.514;1.510;2023-12-28T02:32:32;3.00;;;1.50;;
83055;SDS011;72881;43.514;1.510;2023-12-28T02:35:14;3.10;;;1.67;;
83055;SDS011;72881;43.514;1.510;2023-12-28T02:37:42;3.40;;;1.60;;
83055;SDS011;72881;43.514;1.510;2023-12-28T02:40:09;2.55;;;1.40;;
83055;SDS011;72881;43.514;1.510;2023-12-28T02:42:35;3.38;;;1.73;;
83055;SDS011;72881;43.514;1.510;2023-12-28T02:45:00;3.28;;;1.60;;
83055;SDS011;72881;43.514;1.510;2023-12-28T02:47:25;2.67;;;1.38;;
83055;SDS011;72881;43.514;1.510;2023-12-28T02:49:51;2.72;;;1.50;;
83055;SDS011;72881;43.514;1.510;2023-12-28T02:52:16;3.70;;;1.38;;
83055;SDS011;72881;43.514;1.510;2023-12-28T02:54:42;2.70;;;1.40;;
83055;SDS011;72881;43.514;1.510;2023-12-28T02:57:07;2.60;;;1.40;;
83055;SDS011;72881;43.514;1.510;2023-12-28T02:59:32;2.88;;;1.58;;
83055;SDS011;72881;43.514;1.510;2023-12-28T03:01:58;1.92;;;1.45;;
83055;SDS011;72881;43.514;1.510;2023-12-28T03:04:23;2.67;;;1.40;;
83055;SDS011;72881;43.514;1.510;2023-12-28T03:06:48;3.45;;;1.60;;
83055;SDS011;72881;43.514;1.510;2023-12-28T03:09:14;3.38;;;1.70;;
83055;SDS011;72881;43.514;1.510;2023-12-28T03:11:39;2.40;;;1.35;;
83055;SDS011;72881;43.514;1.510;2023-12-28T03:14:05;2.38;;;1.55;;
83055;SDS011;72881;43.514;1.510;2023-12-28T03:16:30;2.70;;;1.55;;
83055;SDS011;72881;43.514;1.510;2023-12-28T03:18:55;2.97;;;1.50;;
83055;SDS011;72881;43.514;1.510;2023-12-28T03:21:21;2.63;;;1.63;;
83055;SDS011;72881;43.514;1.510;2023-12-28T03:23:46;2.58;;;1.48;;
83055;SDS011;72881;43.514;1.510;2023-12-28T03:26:11;3.58;;;1.30;;
83055;SDS011;72881;43.514;1.510;2023-12-28T03:28:37;2.67;;;1.45;;
83055;SDS011;72881;43.514;1.510;2023-12-28T03:31:02;2.88;;;1.70;;
83055;SDS011;72881;43.514;1.510;2023-12-28T03:33:28;2.25;;;1.40;;
83055;SDS011;72881;43.514;1.510;2023-12-28T03:35:53;3.50;;;1.40;;
83055;SDS011;72881;43.514;1.510;2023-12-28T03:38:19;2.25;;;1.50;;
83055;SDS011;72881;43.514;1.510;2023-12-28T03:40:44;3.55;;;1.40;;
83055;SDS011;72881;43.514;1.510;2023-12-28T03:43:12;3.20;;;1.50;;
83055;SDS011;72881;43.514;1.510;2023-12-28T03:45:38;2.60;;;1.38;;
83055;SDS011;72881;43.514;1.510;2023-12-28T03:48:03;3.13;;;1.50;;
83055;SDS011;72881;43.514;1.510;2023-12-28T03:50:29;2.80;;;1.40;;
83055;SDS011;72881;43.514;1.510;2023-12-28T03:52:54;2.30;;;1.42;;
83055;SDS011;72881;43.514;1.510;2023-12-28T03:55:20;3.33;;;1.52;;
83055;SDS011;72881;43.514;1.510;2023-12-28T03:57:46;3.75;;;1.60;;
83055;SDS011;72881;43.514;1.510;2023-12-28T04:00:12;3.00;;;1.40;;
83055;SDS011;72881;43.514;1.510;2023-12-28T04:02:39;2.17;;;1.30;;
83055;SDS011;72881;43.514;1.510;2023-12-28T04:05:05;2.90;;;1.45;;
83055;SDS011;72881;43.514;1.510;2023-12-28T04:07:32;2.30;;;1.58;;
83055;SDS011;72881;43.514;1.510;2023-12-28T04:09:57;2.88;;;1.48;;
83055;SDS011;72881;43.514;1.510;2023-12-28T04:12:23;3.15;;;1.50;;
83055;SDS011;72881;43.514;1.510;2023-12-28T04:14:49;3.55;;;1.30;;
83055;SDS011;72881;43.514;1.510;2023-12-28T04:17:14;3.08;;;1.50;;
83055;SDS011;72881;43.514;1.510;2023-12-28T04:19:39;2.38;;;1.50;;
83055;SDS011;72881;43.514;1.510;2023-12-28T04:22:05;3.15;;;1.50;;
83055;SDS011;72881;43.514;1.510;2023-12-28T04:24:30;3.97;;;1.63;;
83055;SDS011;72881;43.514;1.510;2023-12-28T04:26:56;2.22;;;1.50;;
83055;SDS011;72881;43.514;1.510;2023-12-28T04:29:21;2.95;;;1.60;;
83055;SDS011;72881;43.514;1.510;2023-12-28T04:31:46;2.53;;;1.33;;
83055;SDS011;72881;43.514;1.510;2023-12-28T04:34:12;2.58;;;1.50;;
83055;SDS011;72881;43.514;1.510;2023-12-28T04:36:41;2.45;;;1.40;;
83055;SDS011;72881;43.514;1.510;2023-12-28T04:39:07;3.30;;;1.35;;
83055;SDS011;72881;43.514;1.510;2023-12-28T04:41:33;3.03;;;1.20;;
83055;SDS011;72881;43.514;1.510;2023-12-28T04:43:58;3.75;;;1.60;;
83055;SDS011;72881;43.514;1.510;2023-12-28T04:46:24;2.63;;;1.40;;
83055;SDS011;72881;43.514;1.510;2023-12-28T04:48:49;2.65;;;1.48;;
83055;SDS011;72881;43.514;1.510;2023-12-28T04:51:15;2.35;;;1.50;;
83055;SDS011;72881;43.514;1.510;2023-12-28T04:53:40;1.95;;;1.30;;
83055;SDS011;72881;43.514;1.510;2023-12-28T04:56:06;2.42;;;1.33;;
83055;SDS011;72881;43.514;1.510;2023-12-28T04:58:31;2.28;;;1.15;;
83055;SDS011;72881;43.514;1.510;2023-12-28T05:00:56;1.77;;;1.20;;
83055;SDS011;72881;43.514;1.510;2023-12-28T05:03:22;1.90;;;1.20;;
83055;SDS011;72881;43.514;1.510;2023-12-28T05:05:47;1.92;;;1.35;;
83055;SDS011;72881;43.514;1.510;2023-12-28T05:08:13;3.40;;;1.55;;
83055;SDS011;72881;43.514;1.510;2023-12-28T05:10:38;2.20;;;1.27;;
83055;SDS011;72881;43.514;1.510;2023-12-28T05:13:03;2.22;;;1.30;;
83055;SDS011;72881;43.514;1.510;2023-12-28T05:15:29;3.10;;;1.40;;
83055;SDS011;72881;43.514;1.510;2023-12-28T05:17:54;2.55;;;1.40;;
83055;SDS011;72881;43.514;1.510;2023-12-28T05:20:20;3.53;;;1.20;;
83055;SDS011;72881;43.514;1.510;2023-12-28T05:22:45;3.22;;;1.50;;
83055;SDS011;72881;43.514;1.510;2023-12-28T05:25:10;2.97;;;1.45;;
83055;SDS011;72881;43.514;1.510;2023-12-28T05:27:36;2.10;;;1.20;;
83055;SDS011;72881;43.514;1.510;2023-12-28T05:30:01;2.15;;;1.38;;
83055;SDS011;72881;43.514;1.510;2023-12-28T05:32:27;2.42;;;1.40;;
83055;SDS011;72881;43.514;1.510;2023-12-28T05:34:52;2.35;;;1.10;;
83055;SDS011;72881;43.514;1.510;2023-12-28T05:37:18;3.10;;;1.27;;
83055;SDS011;72881;43.514;1.510;2023-12-28T05:39:43;2.17;;;1.13;;
83055;SDS011;72881;43.514;1.510;2023-12-28T05:42:09;3.53;;;1.27;;
83055;SDS011;72881;43.514;1.510;2023-12-28T05:44:34;1.58;;;1.02;;
83055;SDS011;72881;43.514;1.510;2023-12-28T05:46:59;3.28;;;1.25;;
83055;SDS011;72881;43.514;1.510;2023-12-28T05:49:25;2.13;;;1.20;;
83055;SDS011;72881;43.514;1.510;2023-12-28T05:51:50;3.22;;;1.30;;
83055;SDS011;72881;43.514;1.510;2023-12-28T05:54:15;3.20;;;1.10;;
83055;SDS011;72881;43.514;1.510;2023-12-28T05:56:41;2.72;;;1.20;;
83055;SDS011;72881;43.514;1.510;2023-12-28T05:59:06;2.67;;;1.35;;
83055;SDS011;72881;43.514;1.510;2023-12-28T06:01:32;2.47;;;1.38;;
83055;SDS011;72881;43.514;1.510;2023-12-28T06:03:57;2.35;;;1.20;;
83055;SDS011;72881;43.514;1.510;2023-12-28T06:06:23;2.28;;;0.98;;
83055;SDS011;72881;43.514;1.510;2023-12-28T06:08:48;3.22;;;1.40;;
83055;SDS011;72881;43.514;1.510;2023-12-28T06:11:13;3.15;;;1.50;;
83055;SDS011;72881;43.514;1.510;2023-12-28T06:13:39;1.95;;;1.30;;
83055;SDS011;72881;43.514;1.510;2023-12-28T06:16:04;3.25;;;1.20;;
83055;SDS011;72881;43.514;1.510;2023-12-28T06:18:30;2.45;;;1.25;;
83055;SDS011;72881;43.514;1.510;2023-12-28T06:20:56;2.33;;;1.20;;
83055;SDS011;72881;43.514;1.510;2023-12-28T06:23:21;1.70;;;0.95;;
83055;SDS011;72881;43.514;1.510;2023-12-28T06:25:46;2.58;;;1.15;;
83055;SDS011;72881;43.514;1.510;2023-12-28T06:28:12;2.55;;;1.23;;
83055;SDS011;72881;43.514;1.510;2023-12-28T06:30:37;2.22;;;1.00;;
83055;SDS011;72881;43.514;1.510;2023-12-28T06:33:04;2.45;;;1.10;;
83055;SDS011;72881;43.514;1.510;2023-12-28T06:35:30;1.80;;;1.08;;
83055;SDS011;72881;43.514;1.510;2023-12-28T06:37:56;2.05;;;1.20;;
83055;SDS011;72881;43.514;1.510;2023-12-28T06:40:21;2.20;;;1.10;;
83055;SDS011;72881;43.514;1.510;2023-12-28T06:42:46;2.60;;;1.23;;
83055;SDS011;72881;43.514;1.510;2023-12-28T06:45:12;1.60;;;0.90;;
83055;SDS011;72881;43.514;1.510;2023-12-28T06:47:37;2.63;;;1.13;;
83055;SDS011;72881;43.514;1.510;2023-12-28T06:50:03;3.03;;;1.52;;
83055;SDS011;72881;43.514;1.510;2023-12-28T06:52:28;2.08;;;1.10;;
83055;SDS011;72881;43.514;1.510;2023-12-28T06:54:56;2.92;;;1.50;;
83055;SDS011;72881;43.514;1.510;2023-12-28T06:57:22;1.98;;;1.00;;
83055;SDS011;72881;43.514;1.510;2023-12-28T06:59:47;1.70;;;1.10;;
83055;SDS011;72881;43.514;1.510;2023-12-28T07:02:12;2.53;;;1.25;;
83055;SDS011;72881;43.514;1.510;2023-12-28T07:04:38;1.90;;;1.00;;
83055;SDS011;72881;43.514;1.510;2023-12-28T07:07:03;3.10;;;1.13;;
83055;SDS011;72881;43.514;1.510;2023-12-28T07:09:28;1.90;;;1.20;;
83055;SDS011;72881;43.514;1.510;2023-12-28T07:11:54;2.20;;;1.20;;
83055;SDS011;72881;43.514;1.510;2023-12-28T07:14:19;2.63;;;1.13;;
83055;SDS011;72881;43.514;1.510;2023-12-28T07:16:44;2.30;;;1.20;;
83055;SDS011;72881;43.514;1.510;2023-12-28T07:19:10;1.90;;;1.10;;
83055;SDS011;72881;43.514;1.510;2023-12-28T07:21:36;2.20;;;1.15;;
83055;SDS011;72881;43.514;1.510;2023-12-28T07:24:01;2.10;;;1.30;;
83055;SDS011;72881;43.514;1.510;2023-12-28T07:26:26;1.88;;;1.00;;
83055;SDS011;72881;43.514;1.510;2023-12-28T07:28:52;2.00;;;1.10;;
83055;SDS011;72881;43.514;1.510;2023-12-28T07:31:27;2.10;;;0.98;;
83055;SDS011;72881;43.514;1.510;2023-12-28T07:33:53;2.83;;;1.70;;
83055;SDS011;72881;43.514;1.510;2023-12-28T07:36:19;3.03;;;0.90;;
83055;SDS011;72881;43.514;1.510;2023-12-28T07:38:45;2.13;;;1.10;;
83055;SDS011;72881;43.514;1.510;2023-12-28T07:41:10;2.63;;;1.08;;
83055;SDS011;72881;43.514;1.510;2023-12-28T07:43:36;3.40;;;1.00;;
83055;SDS011;72881;43.514;1.510;2023-12-28T07:46:02;2.58;;;1.17;;
83055;SDS011;72881;43.514;1.510;2023-12-28T07:48:27;2.88;;;1.10;;
83055;SDS011;72881;43.514;1.510;2023-12-28T07:50:57;2.33;;;1.33;;
83055;SDS011;72881;43.514;1.510;2023-12-28T07:53:22;2.17;;;1.25;;
83055;SDS011;72881;43.514;1.510;2023-12-28T07:55:48;1.20;;;0.90;;
83055;SDS011;72881;43.514;1.510;2023-12-28T07:58:14;2.35;;;1.05;;
83055;SDS011;72881;43.514;1.510;2023-12-28T08:00:39;2.45;;;1.05;;
83055;SDS011;72881;43.514;1.510;2023-12-28T08:03:05;1.83;;;1.00;;
83055;SDS011;72881;43.514;1.510;2023-12-28T08:05:30;2.08;;;1.10;;
83055;SDS011;72881;43.514;1.510;2023-12-28T08:07:56;1.73;;;1.00;;
83055;SDS011;72881;43.514;1.510;2023-12-28T08:10:21;2.78;;;1.10;;
83055;SDS011;72881;43.514;1.510;2023-12-28T08:12:46;2.00;;;0.90;;
83055;SDS011;72881;43.514;1.510;2023-12-28T08:15:12;1.98;;;1.13;;
83055;SDS011;72881;43.514;1.510;2023-12-28T08:17:37;1.33;;;0.90;;
83055;SDS011;72881;43.514;1.510;2023-12-28T08:20:03;2.28;;;1.20;;
83055;SDS011;72881;43.514;1.510;2023-12-28T08:22:30;1.75;;;1.00;;
83055;SDS011;72881;43.514;1.510;2023-12-28T08:24:56;2.53;;;1.02;;
83055;SDS011;72881;43.514;1.510;2023-12-28T08:27:22;1.70;;;1.00;;
83055;SDS011;72881;43.514;1.510;2023-12-28T08:29:48;2.60;;;1.00;;
83055;SDS011;72881;43.514;1.510;2023-12-28T08:32:13;2.42;;;1.13;;
83055;SDS011;72881;43.514;1.510;2023-12-28T08:34:38;2.63;;;1.08;;
83055;SDS011;72881;43.514;1.510;2023-12-28T08:37:04;1.77;;;1.17;;
83055;SDS011;72881;43.514;1.510;2023-12-28T08:39:29;2.15;;;1.00;;
83055;SDS011;72881;43.514;1.510;2023-12-28T08:41:55;1.92;;;1.00;;
83055;SDS011;72881;43.514;1.510;2023-12-28T08:44:21;1.85;;;0.93;;
83055;SDS011;72881;43.514;1.510;2023-12-28T08:46:46;1.92;;;0.93;;
83055;SDS011;72881;43.514;1.510;2023-12-28T08:49:12;1.85;;;0.82;;
83055;SDS011;72881;43.514;1.510;2023-12-28T08:51:37;1.70;;;1.10;;
83055;SDS011;72881;43.514;1.510;2023-12-28T08:54:03;1.55;;;0.80;;
83055;SDS011;72881;43.514;1.510;2023-12-28T08:56:28;2.58;;;1.08;;
83055;SDS011;72881;43.514;1.510;2023-12-28T08:58:55;2.15;;;1.10;;
83055;SDS011;72881;43.514;1.510;2023-12-28T09:01:21;1.70;;;1.20;;
83055;SDS011;72881;43.514;1.510;2023-12-28T09:03:48;1.92;;;1.10;;
83055;SDS011;72881;43.514;1.510;2023-12-28T09:06:14;1.80;;;0.98;;
83055;SDS011;72881;43.514;1.510;2023-12-28T09:08:41;2.03;;;1.15;;
83055;SDS011;72881;43.514;1.510;2023-12-28T09:11:09;1.70;;;1.08;;
83055;SDS011;72881;43.514;1.510;2023-12-28T09:13:35;2.05;;;1.02;;
83055;SDS011;72881;43.514;1.510;2023-12-28T09:16:00;1.90;;;0.90;;
83055;SDS011;72881;43.514;1.510;2023-12-28T09:18:26;1.60;;;1.00;;
83055;SDS011;72881;43.514;1.510;2023-12-28T09:20:51;1.77;;;0.93;;
83055;SDS011;72881;43.514;1.510;2023-12-28T09:23:16;2.00;;;1.10;;
83055;SDS011;72881;43.514;1.510;2023-12-28T09:25:42;2.15;;;1.17;;
83055;SDS011;72881;43.514;1.510;2023-12-28T09:28:07;2.80;;;1.00;;
83055;SDS011;72881;43.514;1.510;2023-12-28T09:30:33;1.70;;;1.02;;
83055;SDS011;72881;43.514;1.510;2023-12-28T09:32:58;1.50;;;0.82;;
83055;SDS011;72881;43.514;1.510;2023-12-28T09:35:24;1.80;;;1.05;;
83055;SDS011;72881;43.514;1.510;2023-12-28T09:37:50;2.05;;;1.10;;
83055;SDS011;72881;43.514;1.510;2023-12-28T09:40:15;1.77;;;1.08;;
83055;SDS011;72881;43.514;1.510;2023-12-28T09:43:30;3.58;;;1.30;;
83055;SDS011;72881;43.514;1.510;2023-12-28T09:45:32;2.95;;;1.23;;
83055;SDS011;72881;43.514;1.510;2023-12-28T09:47:58;2.42;;;1.35;;
83055;SDS011;72881;43.514;1.510;2023-12-28T09:50:24;2.45;;;1.20;;
83055;SDS011;72881;43.514;1.510;2023-12-28T09:52:51;2.65;;;1.27;;
83055;SDS011;72881;43.514;1.510;2023-12-28T09:55:18;2.08;;;1.40;;
83055;SDS011;72881;43.514;1.510;2023-12-28T09:57:43;1.95;;;1.00;;
83055;SDS011;72881;43.514;1.510;2023-12-28T10:00:10;2.50;;;1.20;;
83055;SDS011;72881;43.514;1.510;2023-12-28T10:02:37;3.08;;;1.23;;
83055;SDS011;72881;43.514;1.510;2023-12-28T10:05:05;2.20;;;1.08;;
83055;SDS011;72881;43.514;1.510;2023-12-28T10:07:31;3.22;;;1.40;;
83055;SDS011;72881;43.514;1.510;2023-12-28T10:09:56;3.20;;;1.23;;
83055;SDS011;72881;43.514;1.510;2023-12-28T10:12:22;2.13;;;1.20;;
83055;SDS011;72881;43.514;1.510;2023-12-28T10:14:47;1.63;;;1.02;;
83055;SDS011;72881;43.514;1.510;2023-12-28T10:17:15;2.28;;;1.10;;
83055;SDS011;72881;43.514;1.510;2023-12-28T10:19:41;1.77;;;1.08;;
83055;SDS011;72881;43.514;1.510;2023-12-28T10:22:06;2.53;;;1.20;;
83055;SDS011;72881;43.514;1.510;2023-12-28T10:24:32;2.80;;;1.23;;
83055;SDS011;72881;43.514;1.510;2023-12-28T10:26:57;1.70;;;1.13;;
83055;SDS011;72881;43.514;1.510;2023-12-28T10:29:26;2.50;;;1.20;;
83055;SDS011;72881;43.514;1.510;2023-12-28T10:31:51;3.00;;;1.30;;
83055;SDS011;72881;43.514;1.510;2023-12-28T10:34:17;2.65;;;1.30;;
83055;SDS011;72881;43.514;1.510;2023-12-28T10:36:43;2.20;;;1.10;;
83055;SDS011;72881;43.514;1.510;2023-12-28T10:39:10;1.98;;;1.15;;
83055;SDS011;72881;43.514;1.510;2023-12-28T10:41:38;2.83;;;1.10;;
83055;SDS011;72881;43.514;1.510;2023-12-28T10:44:06;2.28;;;1.17;;
83055;SDS011;72881;43.514;1.510;2023-12-28T10:46:33;2.60;;;1.10;;
83055;SDS011;72881;43.514;1.510;2023-12-28T10:49:05;2.40;;;1.30;;
83055;SDS011;72881;43.514;1.510;2023-12-28T10:51:35;1.80;;;1.15;;
83055;SDS011;72881;43.514;1.510;2023-12-28T10:54:23;1.80;;;1.25;;
83055;SDS011;72881;43.514;1.510;2023-12-28T10:57:06;2.38;;;1.27;;
83055;SDS011;72881;43.514;1.510;2023-12-28T11:02:18;2.22;;;1.33;;
83055;SDS011;72881;43.514;1.510;2023-12-28T11:04:48;2.67;;;1.27;;
83055;SDS011;72881;43.514;1.510;2023-12-28T11:07:15;1.90;;;1.13;;
83055;SDS011;72881;43.514;1.510;2023-12-28T11:09:41;3.42;;;1.52;;
83055;SDS011;72881;43.514;1.510;2023-12-28T11:12:07;2.15;;;1.20;;
83055;SDS011;72881;43.514;1.510;2023-12-28T11:14:35;2.55;;;1.30;;
83055;SDS011;72881;43.514;1.510;2023-12-28T11:17:02;2.47;;;1.17;;
83055;SDS011;72881;43.514;1.510;2023-12-28T11:19:28;2.58;;;1.30;;
83055;SDS011;72881;43.514;1.510;2023-12-28T11:21:55;2.20;;;1.17;;
83055;SDS011;72881;43.514;1.510;2023-12-28T11:24:21;1.95;;;1.30;;
83055;SDS011;72881;43.514;1.510;2023-12-28T11:26:53;2.33;;;1.20;;
83055;SDS011;72881;43.514;1.510;2023-12-28T11:29:22;2.80;;;1.40;;
83055;SDS011;72881;43.514;1.510;2023-12-28T11:31:51;2.22;;;1.30;;
83055;SDS011;72881;43.514;1.510;2023-12-28T11:34:17;1.92;;;1.30;;
83055;SDS011;72881;43.514;1.510;2023-12-28T11:36:44;2.92;;;1.10;;
83055;SDS011;72881;43.514;1.510;2023-12-28T11:39:12;2.45;;;1.20;;
83055;SDS011;72881;43.514;1.510;2023-12-28T11:41:37;2.15;;;1.10;;
83055;SDS011;72881;43.514;1.510;2023-12-28T11:44:03;2.10;;;1.10;;
83055;SDS011;72881;43.514;1.510;2023-12-28T11:46:32;2.65;;;1.30;;
83055;SDS011;72881;43.514;1.510;2023-12-28T11:49:07;2.35;;;1.30;;
83055;SDS011;72881;43.514;1.510;2023-12-28T11:51:34;2.20;;;1.33;;
83055;SDS011;72881;43.514;1.510;2023-12-28T11:54:01;2.85;;;1.50;;
83055;SDS011;72881;43.514;1.510;2023-12-28T11:56:28;2.20;;;1.30;;
83055;SDS011;72881;43.514;1.510;2023-12-28T11:58:54;2.13;;;1.23;;
83055;SDS011;72881;43.514;1.510;2023-12-28T12:01:20;2.00;;;1.33;;
83055;SDS011;72881;43.514;1.510;2023-12-28T12:03:45;4.32;;;1.30;;
83055;SDS011;72881;43.514;1.510;2023-12-28T12:06:11;2.05;;;1.13;;
83055;SDS011;72881;43.514;1.510;2023-12-28T12:08:36;2.10;;;1.30;;
83055;SDS011;72881;43.514;1.510;2023-12-28T12:11:02;3.22;;;1.60;;
83055;SDS011;72881;43.514;1.510;2023-12-28T12:13:30;2.28;;;1.10;;
83055;SDS011;72881;43.514;1.510;2023-12-28T12:15:56;2.75;;;1.23;;
83055;SDS011;72881;43.514;1.510;2023-12-28T12:18:22;1.75;;;1.17;;
83055;SDS011;72881;43.514;1.510;2023-12-28T12:20:47;2.17;;;1.30;;
83055;SDS011;72881;43.514;1.510;2023-12-28T12:23:14;2.40;;;1.30;;
83055;SDS011;72881;43.514;1.510;2023-12-28T12:25:40;2.45;;;1.48;;
83055;SDS011;72881;43.514;1.510;2023-12-28T12:28:06;1.98;;;1.30;;
83055;SDS011;72881;43.514;1.510;2023-12-28T12:30:31;2.33;;;1.20;;
83055;SDS011;72881;43.514;1.510;2023-12-28T12:32:57;2.28;;;1.40;;
83055;SDS011;72881;43.514;1.510;2023-12-28T12:35:22;1.95;;;1.40;;
83055;SDS011;72881;43.514;1.510;2023-12-28T12:37:48;1.92;;;1.30;;
83055;SDS011;72881;43.514;1.510;2023-12-28T12:40:15;2.42;;;1.48;;
83055;SDS011;72881;43.514;1.510;2023-12-28T12:42:42;2.03;;;1.38;;
83055;SDS011;72881;43.514;1.510;2023-12-28T12:45:08;2.33;;;1.23;;
83055;SDS011;72881;43.514;1.510;2023-12-28T12:47:34;1.88;;;1.20;;
83055;SDS011;72881;43.514;1.510;2023-12-28T12:49:59;2.25;;;1.40;;
83055;SDS011;72881;43.514;1.510;2023-12-28T12:52:25;2.10;;;1.30;;
83055;SDS011;72881;43.514;1.510;2023-12-28T12:54:54;2.83;;;1.40;;
83055;SDS011;72881;43.514;1.510;2023-12-28T12:57:24;2.05;;;1.35;;
83055;SDS011;72881;43.514;1.510;2023-12-28T12:59:50;2.45;;;1.35;;
83055;SDS011;72881;43.514;1.510;2023-12-28T13:02:16;2.28;;;1.52;;
83055;SDS011;72881;43.514;1.510;2023-12-28T13:04:42;2.10;;;1.30;;
83055;SDS011;72881;43.514;1.510;2023-12-28T13:07:07;2.67;;;1.30;;
83055;SDS011;72881;43.514;1.510;2023-12-28T13:09:34;2.35;;;1.20;;
83055;SDS011;72881;43.514;1.510;2023-12-28T13:12:00;2.45;;;1.30;;
83055;SDS011;72881;43.514;1.510;2023-12-28T13:14:25;3.50;;;1.40;;
83055;SDS011;72881;43.514;1.510;2023-12-28T13:16:50;2.20;;;1.48;;
83055;SDS011;72881;43.514;1.510;2023-12-28T13:19:19;2.60;;;1.50;;
83055;SDS011;72881;43.514;1.510;2023-12-28T13:21:45;2.63;;;1.38;;
83055;SDS011;72881;43.514;1.510;2023-12-28T13:24:10;3.20;;;1.40;;
83055;SDS011;72881;43.514;1.510;2023-12-28T13:26:36;2.50;;;1.50;;
83055;SDS011;72881;43.514;1.510;2023-12-28T13:29:01;2.50;;;1.40;;
83055;SDS011;72881;43.514;1.510;2023-12-28T13:31:26;2.45;;;1.60;;
83055;SDS011;72881;43.514;1.510;2023-12-28T13:33:52;2.13;;;1.52;;
83055;SDS011;72881;43.514;1.510;2023-12-28T13:36:17;2.22;;;1.42;;
83055;SDS011;72881;43.514;1.510;2023-12-28T13:38:43;2.33;;;1.23;;
83055;SDS011;72881;43.514;1.510;2023-12-28T13:41:09;2.58;;;1.27;;
83055;SDS011;72881;43.514;1.510;2023-12-28T13:43:34;3.28;;;1.85;;
83055;SDS011;72881;43.514;1.510;2023-12-28T13:46:00;2.30;;;1.42;;
83055;SDS011;72881;43.514;1.510;2023-12-28T13:48:28;2.08;;;1.38;;
83055;SDS011;72881;43.514;1.510;2023-12-28T13:50:54;2.47;;;1.40;;
83055;SDS011;72881;43.514;1.510;2023-12-28T13:53:20;2.08;;;1.48;;
83055;SDS011;72881;43.514;1.510;2023-12-28T13:55:46;2.20;;;1.30;;
83055;SDS011;72881;43.514;1.510;2023-12-28T13:58:11;2.88;;;1.55;;
83055;SDS011;72881;43.514;1.510;2023-12-28T14:00:36;1.98;;;1.38;;
83055;SDS011;72881;43.514;1.510;2023-12-28T14:03:02;2.33;;;1.42;;
83055;SDS011;72881;43.514;1.510;2023-12-28T14:05:27;2.55;;;1.50;;
83055;SDS011;72881;43.514;1.510;2023-12-28T14:07:53;2.70;;;1.58;;
83055;SDS011;72881;43.514;1.510;2023-12-28T14:10:18;2.92;;;1.50;;
83055;SDS011;72881;43.514;1.510;2023-12-28T14:12:44;2.50;;;1.50;;
83055;SDS011;72881;43.514;1.510;2023-12-28T14:15:09;2.40;;;1.33;;
83055;SDS011;72881;43.514;1.510;2023-12-28T14:17:34;2.40;;;1.40;;
83055;SDS011;72881;43.514;1.510;2023-12-28T14:20:00;3.90;;;1.55;;
83055;SDS011;72881;43.514;1.510;2023-12-28T14:22:25;2.05;;;1.40;;
83055;SDS011;72881;43.514;1.510;2023-12-28T14:24:52;3.03;;;1.70;;
83055;SDS011;72881;43.514;1.510;2023-12-28T14:27:17;2.28;;;1.48;;
83055;SDS011;72881;43.514;1.510;2023-12-28T14:29:44;2.97;;;1.60;;
83055;SDS011;72881;43.514;1.510;2023-12-28T14:32:10;2.45;;;1.50;;
83055;SDS011;72881;43.514;1.510;2023-12-28T14:34:36;2.97;;;1.70;;
83055;SDS011;72881;43.514;1.510;2023-12-28T14:37:02;3.38;;;1.83;;
83055;SDS011;72881;43.514;1.510;2023-12-28T14:39:28;2.33;;;1.40;;
83055;SDS011;72881;43.514;1.510;2023-12-28T14:41:53;2.92;;;1.38;;
83055;SDS011;72881;43.514;1.510;2023-12-28T14:44:19;2.67;;;1.70;;